sensor_id;sensor_type;location;lat;lon;timestamp;temperature;humidity
26623;DHT22;14254;50.968;5.366;2023-05-07T00:02:23;15.20;99.90
26623;DHT22;14254;50.968;5.366;2023-05-07T00:04:49;15.20;99.90
26623;DHT22;14254;50.968;5.366;2023-05-07T00:07:15;15.30;99.90
26623;DHT22;14254;50.968;5.366;2023-05-07T00:09:41;15.30;99.90
26623;DHT22;14254;50.968;5.366;2023-05-07T00:12:07;15.30;99.90
26623;DHT22;14254;50.968;5.366;2023-05-07T00:14:33;15.40;99.90
26623;DHT22;14254;50.968;5.366;2023-05-07T00:16:59;15.20;99.90
26623;DHT22;14254;50.968;5.366;2023-05-07T00:19:24;15.30;99.90
26623;DHT22;14254;50.968;5.366;2023-05-07T00:21:50;15.30;99.90
26623;DHT22;14254;50.968;5.366;2023-05-07T00:24:18;15.40;99.90
26623;DHT22;14254;50.968;5.366;2023-05-07T00:26:44;15.50;99.90
26623;DHT22;14254;50.968;5.366;2023-05-07T00:29:10;15.50;99.90
26623;DHT22;14254;50.968;5.366;2023-05-07T00:31:36;15.50;99.90
26623;DHT22;14254;50.968;5.366;2023-05-07T00:34:01;15.50;99.90
26623;DHT22;14254;50.968;5.366;2023-05-07T00:36:27;15.50;99.90
26623;DHT22;14254;50.968;5.366;2023-05-07T00:38:54;15.50;99.90
26623;DHT22;14254;50.968;5.366;2023-05-07T00:41:20;15.60;99.90
26623;DHT22;14254;50.968;5.366;2023-05-07T00:43:45;15.50;99.90
26623;DHT22;14254;50.968;5.366;2023-05-07T00:46:11;15.60;99.90
26623;DHT22;14254;50.968;5.366;2023-05-07T00:48:38;15.20;99.90
26623;DHT22;14254;50.968;5.366;2023-05-07T00:51:03;15.00;99.90
26623;DHT22;14254;50.968;5.366;2023-05-07T00:53:30;14.90;99.90
26623;DHT22;14254;50.968;5.366;2023-05-07T00:55:56;14.80;99.90
26623;DHT22;14254;50.968;5.366;2023-05-07T00:58:22;14.90;99.90
26623;DHT22;14254;50.968;5.366;2023-05-07T01:00:47;15.00;99.90
26623;DHT22;14254;50.968;5.366;2023-05-07T01:03:13;15.10;99.90
26623;DHT22;14254;50.968;5.366;2023-05-07T01:05:39;15.30;99.90
26623;DHT22;14254;50.968;5.366;2023-05-07T01:08:06;15.30;99.90
26623;DHT22;14254;50.968;5.366;2023-05-07T01:10:32;15.40;99.90
26623;DHT22;14254;50.968;5.366;2023-05-07T01:12:58;15.40;99.90
26623;DHT22;14254;50.968;5.366;2023-05-07T01:15:25;15.50;99.90
26623;DHT22;14254;50.968;5.366;2023-05-07T01:17:51;15.60;99.90
26623;DHT22;14254;50.968;5.366;2023-05-07T01:20:18;15.60;99.90
26623;DHT22;14254;50.968;5.366;2023-05-07T01:22:44;15.60;99.90
26623;DHT22;14254;50.968;5.366;2023-05-07T01:25:10;15.50;99.90
26623;DHT22;14254;50.968;5.366;2023-05-07T01:27:36;15.30;99.90
26623;DHT22;14254;50.968;5.366;2023-05-07T01:30:05;15.40;99.90
26623;DHT22;14254;50.968;5.366;2023-05-07T01:32:40;15.40;99.90
26623;DHT22;14254;50.968;5.366;2023-05-07T01:35:11;15.40;99.90
26623;DHT22;14254;50.968;5.366;2023-05-07T01:37:38;15.40;99.90
26623;DHT22;14254;50.968;5.366;2023-05-07T01:40:04;15.30;99.90
26623;DHT22;14254;50.968;5.366;2023-05-07T01:42:30;15.20;99.90
26623;DHT22;14254;50.968;5.366;2023-05-07T01:44:56;15.10;99.90
26623;DHT22;14254;50.968;5.366;2023-05-07T01:47:23;15.10;99.90
26623;DHT22;14254;50.968;5.366;2023-05-07T01:49:49;15.10;99.90
26623;DHT22;14254;50.968;5.366;2023-05-07T01:52:15;15.10;99.90
26623;DHT22;14254;50.968;5.366;2023-05-07T01:54:41;15.00;99.90
26623;DHT22;14254;50.968;5.366;2023-05-07T01:57:07;15.10;99.90
26623;DHT22;14254;50.968;5.366;2023-05-07T01:59:32;15.20;99.90
26623;DHT22;14254;50.968;5.366;2023-05-07T02:01:58;15.30;99.90
26623;DHT22;14254;50.968;5.366;2023-05-07T02:04:24;15.40;99.90
26623;DHT22;14254;50.968;5.366;2023-05-07T02:06:50;15.40;99.90
26623;DHT22;14254;50.968;5.366;2023-05-07T02:09:15;15.30;99.90
26623;DHT22;14254;50.968;5.366;2023-05-07T02:11:41;15.30;99.90
26623;DHT22;14254;50.968;5.366;2023-05-07T02:14:07;15.30;99.90
26623;DHT22;14254;50.968;5.366;2023-05-07T02:16:32;15.40;99.90
26623;DHT22;14254;50.968;5.366;2023-05-07T02:18:58;15.40;99.90
26623;DHT22;14254;50.968;5.366;2023-05-07T02:21:25;15.30;99.90
26623;DHT22;14254;50.968;5.366;2023-05-07T02:23:50;15.30;99.90
26623;DHT22;14254;50.968;5.366;2023-05-07T02:26:16;15.40;99.90
26623;DHT22;14254;50.968;5.366;2023-05-07T02:28:42;15.30;99.90
26623;DHT22;14254;50.968;5.366;2023-05-07T02:31:08;15.30;99.90
26623;DHT22;14254;50.968;5.366;2023-05-07T02:33:33;15.40;99.90
26623;DHT22;14254;50.968;5.366;2023-05-07T02:36:10;15.30;99.90
26623;DHT22;14254;50.968;5.366;2023-05-07T02:38:36;15.30;99.90
26623;DHT22;14254;50.968;5.366;2023-05-07T02:41:02;15.40;99.90
26623;DHT22;14254;50.968;5.366;2023-05-07T02:43:27;15.40;99.90
26623;DHT22;14254;50.968;5.366;2023-05-07T02:46:07;15.40;99.90
26623;DHT22;14254;50.968;5.366;2023-05-07T02:48:33;15.50;99.90
26623;DHT22;14254;50.968;5.366;2023-05-07T02:51:00;15.50;99.90
26623;DHT22;14254;50.968;5.366;2023-05-07T02:53:26;15.50;99.90
26623;DHT22;14254;50.968;5.366;2023-05-07T02:55:59;15.50;99.90
26623;DHT22;14254;50.968;5.366;2023-05-07T02:58:25;15.40;99.90
26623;DHT22;14254;50.968;5.366;2023-05-07T03:00:52;15.40;99.90
26623;DHT22;14254;50.968;5.366;2023-05-07T03:03:18;15.40;99.90
26623;DHT22;14254;50.968;5.366;2023-05-07T03:05:44;15.40;99.90
26623;DHT22;14254;50.968;5.366;2023-05-07T03:08:10;15.40;99.90
26623;DHT22;14254;50.968;5.366;2023-05-07T03:10:36;15.20;99.90
26623;DHT22;14254;50.968;5.366;2023-05-07T03:13:02;15.20;99.90
26623;DHT22;14254;50.968;5.366;2023-05-07T03:15:28;15.20;99.90
26623;DHT22;14254;50.968;5.366;2023-05-07T03:17:54;15.20;99.90
26623;DHT22;14254;50.968;5.366;2023-05-07T03:20:20;15.20;99.90
26623;DHT22;14254;50.968;5.366;2023-05-07T03:22:45;15.10;99.90
26623;DHT22;14254;50.968;5.366;2023-05-07T03:25:11;15.10;99.90
26623;DHT22;14254;50.968;5.366;2023-05-07T03:27:37;15.10;99.90
26623;DHT22;14254;50.968;5.366;2023-05-07T03:30:04;15.10;99.90
26623;DHT22;14254;50.968;5.366;2023-05-07T03:32:29;15.10;99.90
26623;DHT22;14254;50.968;5.366;2023-05-07T03:34:55;15.10;99.90
26623;DHT22;14254;50.968;5.366;2023-05-07T03:37:21;15.10;99.90
26623;DHT22;14254;50.968;5.366;2023-05-07T03:39:47;15.10;99.90
26623;DHT22;14254;50.968;5.366;2023-05-07T03:42:13;15.00;99.90
26623;DHT22;14254;50.968;5.366;2023-05-07T03:44:38;15.10;99.90
26623;DHT22;14254;50.968;5.366;2023-05-07T03:47:04;15.10;99.90
26623;DHT22;14254;50.968;5.366;2023-05-07T03:49:30;15.20;99.90
26623;DHT22;14254;50.968;5.366;2023-05-07T03:51:55;15.20;99.90
26623;DHT22;14254;50.968;5.366;2023-05-07T03:54:22;15.20;99.90
26623;DHT22;14254;50.968;5.366;2023-05-07T03:56:47;15.20;99.90
26623;DHT22;14254;50.968;5.366;2023-05-07T03:59:13;15.30;99.90
26623;DHT22;14254;50.968;5.366;2023-05-07T04:01:39;15.30;99.90
26623;DHT22;14254;50.968;5.366;2023-05-07T04:04:05;15.30;99.90
26623;DHT22;14254;50.968;5.366;2023-05-07T04:06:31;15.30;99.90
26623;DHT22;14254;50.968;5.366;2023-05-07T04:08:57;15.40;99.90
26623;DHT22;14254;50.968;5.366;2023-05-07T04:11:23;15.30;99.90
26623;DHT22;14254;50.968;5.366;2023-05-07T04:13:49;15.40;99.90
26623;DHT22;14254;50.968;5.366;2023-05-07T04:16:15;15.40;99.90
26623;DHT22;14254;50.968;5.366;2023-05-07T04:18:41;15.40;99.90
26623;DHT22;14254;50.968;5.366;2023-05-07T04:21:14;15.40;99.90
26623;DHT22;14254;50.968;5.366;2023-05-07T04:23:40;15.50;99.90
26623;DHT22;14254;50.968;5.366;2023-05-07T04:26:06;15.40;99.90
26623;DHT22;14254;50.968;5.366;2023-05-07T04:28:32;15.40;99.90
26623;DHT22;14254;50.968;5.366;2023-05-07T04:30:58;15.40;99.90
26623;DHT22;14254;50.968;5.366;2023-05-07T04:33:23;15.50;99.90
26623;DHT22;14254;50.968;5.366;2023-05-07T04:35:49;15.50;99.90
26623;DHT22;14254;50.968;5.366;2023-05-07T04:38:15;15.60;99.90
26623;DHT22;14254;50.968;5.366;2023-05-07T04:40:41;15.50;99.90
26623;DHT22;14254;50.968;5.366;2023-05-07T04:43:07;15.20;99.90
26623;DHT22;14254;50.968;5.366;2023-05-07T04:45:35;15.10;99.90
26623;DHT22;14254;50.968;5.366;2023-05-07T04:48:00;15.20;99.90
26623;DHT22;14254;50.968;5.366;2023-05-07T04:50:26;15.30;99.90
26623;DHT22;14254;50.968;5.366;2023-05-07T04:52:52;15.50;99.90
26623;DHT22;14254;50.968;5.366;2023-05-07T04:55:18;15.60;99.90
26623;DHT22;14254;50.968;5.366;2023-05-07T04:57:43;15.70;99.90
26623;DHT22;14254;50.968;5.366;2023-05-07T05:00:09;15.80;99.90
26623;DHT22;14254;50.968;5.366;2023-05-07T05:02:35;15.90;99.90
26623;DHT22;14254;50.968;5.366;2023-05-07T05:05:01;15.90;99.90
26623;DHT22;14254;50.968;5.366;2023-05-07T05:07:28;15.90;99.90
26623;DHT22;14254;50.968;5.366;2023-05-07T05:09:54;15.90;99.90
26623;DHT22;14254;50.968;5.366;2023-05-07T05:12:20;16.00;99.90
26623;DHT22;14254;50.968;5.366;2023-05-07T05:14:46;16.10;99.90
26623;DHT22;14254;50.968;5.366;2023-05-07T05:17:12;16.20;99.90
26623;DHT22;14254;50.968;5.366;2023-05-07T05:19:38;16.30;99.90
26623;DHT22;14254;50.968;5.366;2023-05-07T05:22:03;16.50;99.90
26623;DHT22;14254;50.968;5.366;2023-05-07T05:24:30;16.70;99.90
26623;DHT22;14254;50.968;5.366;2023-05-07T05:26:56;16.80;99.90
26623;DHT22;14254;50.968;5.366;2023-05-07T05:29:22;16.80;99.90
26623;DHT22;14254;50.968;5.366;2023-05-07T05:31:48;17.00;99.90
26623;DHT22;14254;50.968;5.366;2023-05-07T05:34:13;17.10;99.90
26623;DHT22;14254;50.968;5.366;2023-05-07T05:36:39;17.20;99.90
26623;DHT22;14254;50.968;5.366;2023-05-07T05:39:04;17.20;99.90
26623;DHT22;14254;50.968;5.366;2023-05-07T05:41:31;17.30;99.90
26623;DHT22;14254;50.968;5.366;2023-05-07T05:43:57;17.30;99.90
26623;DHT22;14254;50.968;5.366;2023-05-07T05:46:22;17.50;99.90
26623;DHT22;14254;50.968;5.366;2023-05-07T05:48:48;17.70;99.90
26623;DHT22;14254;50.968;5.366;2023-05-07T05:51:14;17.80;99.90
26623;DHT22;14254;50.968;5.366;2023-05-07T05:53:39;17.90;99.90
26623;DHT22;14254;50.968;5.366;2023-05-07T05:56:05;18.10;99.90
26623;DHT22;14254;50.968;5.366;2023-05-07T05:58:31;18.10;99.90
26623;DHT22;14254;50.968;5.366;2023-05-07T06:00:57;18.10;99.90
26623;DHT22;14254;50.968;5.366;2023-05-07T06:03:23;18.30;99.90
26623;DHT22;14254;50.968;5.366;2023-05-07T06:05:49;18.10;99.90
26623;DHT22;14254;50.968;5.366;2023-05-07T06:08:14;18.30;99.90
26623;DHT22;14254;50.968;5.366;2023-05-07T06:10:41;18.30;99.90
26623;DHT22;14254;50.968;5.366;2023-05-07T06:13:07;18.50;99.90
26623;DHT22;14254;50.968;5.366;2023-05-07T06:15:32;18.50;99.90
26623;DHT22;14254;50.968;5.366;2023-05-07T06:17:58;18.50;99.90
26623;DHT22;14254;50.968;5.366;2023-05-07T06:20:23;18.70;99.90
26623;DHT22;14254;50.968;5.366;2023-05-07T06:22:49;18.90;99.90
26623;DHT22;14254;50.968;5.366;2023-05-07T06:25:15;19.00;99.90
26623;DHT22;14254;50.968;5.366;2023-05-07T06:27:40;19.10;99.90
26623;DHT22;14254;50.968;5.366;2023-05-07T06:30:07;19.30;99.90
26623;DHT22;14254;50.968;5.366;2023-05-07T06:32:33;19.40;99.90
26623;DHT22;14254;50.968;5.366;2023-05-07T06:34:58;19.50;99.90
26623;DHT22;14254;50.968;5.366;2023-05-07T06:37:24;19.50;99.90
26623;DHT22;14254;50.968;5.366;2023-05-07T06:39:50;19.50;99.90
26623;DHT22;14254;50.968;5.366;2023-05-07T06:42:15;19.60;99.90
26623;DHT22;14254;50.968;5.366;2023-05-07T06:44:41;19.50;99.90
26623;DHT22;14254;50.968;5.366;2023-05-07T06:47:07;19.70;99.90
26623;DHT22;14254;50.968;5.366;2023-05-07T06:49:32;19.80;99.90
26623;DHT22;14254;50.968;5.366;2023-05-07T06:51:58;19.90;99.90
26623;DHT22;14254;50.968;5.366;2023-05-07T06:54:24;19.90;99.90
26623;DHT22;14254;50.968;5.366;2023-05-07T06:56:50;20.00;99.90
26623;DHT22;14254;50.968;5.366;2023-05-07T06:59:15;20.10;99.90
26623;DHT22;14254;50.968;5.366;2023-05-07T07:01:41;20.10;99.90
26623;DHT22;14254;50.968;5.366;2023-05-07T07:04:07;20.00;99.90
26623;DHT22;14254;50.968;5.366;2023-05-07T07:06:33;20.00;99.90
26623;DHT22;14254;50.968;5.366;2023-05-07T07:08:59;20.00;99.90
26623;DHT22;14254;50.968;5.366;2023-05-07T07:11:25;20.00;99.90
26623;DHT22;14254;50.968;5.366;2023-05-07T07:13:51;20.00;99.90
26623;DHT22;14254;50.968;5.366;2023-05-07T07:16:19;20.40;99.90
26623;DHT22;14254;50.968;5.366;2023-05-07T07:18:44;20.60;99.90
26623;DHT22;14254;50.968;5.366;2023-05-07T07:21:10;20.80;99.90
26623;DHT22;14254;50.968;5.366;2023-05-07T07:23:36;20.90;99.90
26623;DHT22;14254;50.968;5.366;2023-05-07T07:26:01;21.00;99.90
26623;DHT22;14254;50.968;5.366;2023-05-07T07:28:27;20.90;99.90
26623;DHT22;14254;50.968;5.366;2023-05-07T07:30:53;20.90;99.90
26623;DHT22;14254;50.968;5.366;2023-05-07T07:33:19;21.20;99.90
26623;DHT22;14254;50.968;5.366;2023-05-07T07:35:44;21.30;99.90
26623;DHT22;14254;50.968;5.366;2023-05-07T07:38:10;21.40;99.90
26623;DHT22;14254;50.968;5.366;2023-05-07T07:40:36;21.00;99.90
26623;DHT22;14254;50.968;5.366;2023-05-07T07:43:01;21.00;99.90
26623;DHT22;14254;50.968;5.366;2023-05-07T07:45:27;21.00;99.90
26623;DHT22;14254;50.968;5.366;2023-05-07T07:47:53;20.90;99.90
26623;DHT22;14254;50.968;5.366;2023-05-07T07:50:19;21.10;99.90
26623;DHT22;14254;50.968;5.366;2023-05-07T07:52:44;21.50;99.90
26623;DHT22;14254;50.968;5.366;2023-05-07T07:55:10;21.90;99.90
26623;DHT22;14254;50.968;5.366;2023-05-07T07:57:36;22.10;99.90
26623;DHT22;14254;50.968;5.366;2023-05-07T08:00:02;22.30;99.90
26623;DHT22;14254;50.968;5.366;2023-05-07T08:02:28;22.30;99.90
26623;DHT22;14254;50.968;5.366;2023-05-07T08:04:54;22.20;99.90
26623;DHT22;14254;50.968;5.366;2023-05-07T08:07:19;22.50;99.90
26623;DHT22;14254;50.968;5.366;2023-05-07T08:09:48;22.80;99.90
26623;DHT22;14254;50.968;5.366;2023-05-07T08:12:14;23.10;99.90
26623;DHT22;14254;50.968;5.366;2023-05-07T08:14:40;23.30;99.90
26623;DHT22;14254;50.968;5.366;2023-05-07T08:17:06;23.50;99.90
26623;DHT22;14254;50.968;5.366;2023-05-07T08:19:32;23.40;99.90
26623;DHT22;14254;50.968;5.366;2023-05-07T08:21:57;23.90;99.90
26623;DHT22;14254;50.968;5.366;2023-05-07T08:24:23;24.20;99.90
26623;DHT22;14254;50.968;5.366;2023-05-07T08:26:49;24.30;99.90
26623;DHT22;14254;50.968;5.366;2023-05-07T08:29:15;24.10;99.90
26623;DHT22;14254;50.968;5.366;2023-05-07T08:31:40;23.90;99.90
26623;DHT22;14254;50.968;5.366;2023-05-07T08:34:06;23.90;99.90
26623;DHT22;14254;50.968;5.366;2023-05-07T08:36:32;24.00;99.90
26623;DHT22;14254;50.968;5.366;2023-05-07T08:38:58;23.90;99.90
26623;DHT22;14254;50.968;5.366;2023-05-07T08:41:24;24.00;99.90
26623;DHT22;14254;50.968;5.366;2023-05-07T08:43:51;24.00;99.90
26623;DHT22;14254;50.968;5.366;2023-05-07T08:46:19;24.30;99.90
26623;DHT22;14254;50.968;5.366;2023-05-07T08:48:47;24.20;99.90
26623;DHT22;14254;50.968;5.366;2023-05-07T08:51:15;24.20;99.90
26623;DHT22;14254;50.968;5.366;2023-05-07T08:53:41;24.10;99.90
26623;DHT22;14254;50.968;5.366;2023-05-07T08:56:09;24.20;99.90
26623;DHT22;14254;50.968;5.366;2023-05-07T08:58:35;24.20;99.90
26623;DHT22;14254;50.968;5.366;2023-05-07T09:01:06;24.20;99.90
26623;DHT22;14254;50.968;5.366;2023-05-07T09:03:32;24.40;99.90
26623;DHT22;14254;50.968;5.366;2023-05-07T09:05:58;24.40;99.90
26623;DHT22;14254;50.968;5.366;2023-05-07T09:08:27;24.40;99.90
26623;DHT22;14254;50.968;5.366;2023-05-07T09:10:53;24.30;99.90
26623;DHT22;14254;50.968;5.366;2023-05-07T09:13:19;24.00;99.90
26623;DHT22;14254;50.968;5.366;2023-05-07T09:15:45;24.50;99.90
26623;DHT22;14254;50.968;5.366;2023-05-07T09:18:11;24.60;99.90
26623;DHT22;14254;50.968;5.366;2023-05-07T09:20:38;24.80;99.90
26623;DHT22;14254;50.968;5.366;2023-05-07T09:23:04;24.80;99.90
26623;DHT22;14254;50.968;5.366;2023-05-07T09:25:31;24.80;99.90
26623;DHT22;14254;50.968;5.366;2023-05-07T09:27:58;24.10;99.90
26623;DHT22;14254;50.968;5.366;2023-05-07T09:30:30;24.10;99.90
26623;DHT22;14254;50.968;5.366;2023-05-07T09:32:58;24.80;99.90
26623;DHT22;14254;50.968;5.366;2023-05-07T09:35:25;25.80;99.90
26623;DHT22;14254;50.968;5.366;2023-05-07T09:37:58;25.00;99.90
26623;DHT22;14254;50.968;5.366;2023-05-07T09:40:29;25.40;99.90
26623;DHT22;14254;50.968;5.366;2023-05-07T09:42:55;25.90;99.90
26623;DHT22;14254;50.968;5.366;2023-05-07T09:45:22;26.10;99.90
26623;DHT22;14254;50.968;5.366;2023-05-07T09:47:49;26.30;99.90
26623;DHT22;14254;50.968;5.366;2023-05-07T09:50:19;26.40;99.90
26623;DHT22;14254;50.968;5.366;2023-05-07T09:52:47;26.20;99.90
26623;DHT22;14254;50.968;5.366;2023-05-07T09:55:13;26.30;99.90
26623;DHT22;14254;50.968;5.366;2023-05-07T09:57:42;26.50;99.90
26623;DHT22;14254;50.968;5.366;2023-05-07T10:00:09;25.90;99.90
26623;DHT22;14254;50.968;5.366;2023-05-07T10:02:36;25.70;99.90
26623;DHT22;14254;50.968;5.366;2023-05-07T10:05:03;25.60;99.90
26623;DHT22;14254;50.968;5.366;2023-05-07T10:07:30;25.40;99.90
26623;DHT22;14254;50.968;5.366;2023-05-07T10:09:57;25.20;99.90
26623;DHT22;14254;50.968;5.366;2023-05-07T10:12:24;25.00;99.90
26623;DHT22;14254;50.968;5.366;2023-05-07T10:14:50;25.00;99.90
26623;DHT22;14254;50.968;5.366;2023-05-07T10:17:17;24.80;99.90
26623;DHT22;14254;50.968;5.366;2023-05-07T10:19:44;24.80;99.90
26623;DHT22;14254;50.968;5.366;2023-05-07T10:22:11;24.70;99.90
26623;DHT22;14254;50.968;5.366;2023-05-07T10:24:38;24.40;99.90
26623;DHT22;14254;50.968;5.366;2023-05-07T10:27:09;24.30;99.90
26623;DHT22;14254;50.968;5.366;2023-05-07T10:34:56;23.80;99.90
26623;DHT22;14254;50.968;5.366;2023-05-07T10:37:24;23.80;99.90
26623;DHT22;14254;50.968;5.366;2023-05-07T10:39:50;23.80;99.90
26623;DHT22;14254;50.968;5.366;2023-05-07T10:42:16;23.70;99.90
26623;DHT22;14254;50.968;5.366;2023-05-07T10:44:42;23.60;99.90
26623;DHT22;14254;50.968;5.366;2023-05-07T10:47:10;23.20;99.90
26623;DHT22;14254;50.968;5.366;2023-05-07T10:52:24;23.20;99.90
26623;DHT22;14254;50.968;5.366;2023-05-07T10:57:46;23.10;99.90
26623;DHT22;14254;50.968;5.366;2023-05-07T11:05:26;22.90;99.90
26623;DHT22;14254;50.968;5.366;2023-05-07T11:07:57;22.60;99.90
26623;DHT22;14254;50.968;5.366;2023-05-07T11:10:23;22.30;99.90
26623;DHT22;14254;50.968;5.366;2023-05-07T11:12:50;22.30;99.90
26623;DHT22;14254;50.968;5.366;2023-05-07T11:15:38;22.00;99.90
26623;DHT22;14254;50.968;5.366;2023-05-07T11:18:04;21.90;99.90
26623;DHT22;14254;50.968;5.366;2023-05-07T11:26:06;21.70;99.90
26623;DHT22;14254;50.968;5.366;2023-05-07T11:28:40;21.40;99.90
26623;DHT22;14254;50.968;5.366;2023-05-07T11:31:06;21.20;99.90
26623;DHT22;14254;50.968;5.366;2023-05-07T11:33:33;20.80;99.90
26623;DHT22;14254;50.968;5.366;2023-05-07T11:36:00;20.60;99.90
26623;DHT22;14254;50.968;5.366;2023-05-07T11:38:29;20.50;99.90
26623;DHT22;14254;50.968;5.366;2023-05-07T11:40:59;20.20;99.90
26623;DHT22;14254;50.968;5.366;2023-05-07T11:43:26;20.00;99.90
26623;DHT22;14254;50.968;5.366;2023-05-07T11:45:53;19.90;99.90
26623;DHT22;14254;50.968;5.366;2023-05-07T11:48:21;19.70;99.90
26623;DHT22;14254;50.968;5.366;2023-05-07T11:51:00;19.80;99.90
26623;DHT22;14254;50.968;5.366;2023-05-07T11:53:27;19.70;99.90
26623;DHT22;14254;50.968;5.366;2023-05-07T11:55:56;19.50;99.90
26623;DHT22;14254;50.968;5.366;2023-05-07T11:58:23;19.50;99.90
26623;DHT22;14254;50.968;5.366;2023-05-07T12:00:53;19.50;99.90
26623;DHT22;14254;50.968;5.366;2023-05-07T12:03:19;19.40;99.90
26623;DHT22;14254;50.968;5.366;2023-05-07T12:05:46;19.60;99.90
26623;DHT22;14254;50.968;5.366;2023-05-07T12:08:16;19.40;99.90
26623;DHT22;14254;50.968;5.366;2023-05-07T12:10:42;19.30;99.90
26623;DHT22;14254;50.968;5.366;2023-05-07T12:13:17;19.40;99.90
26623;DHT22;14254;50.968;5.366;2023-05-07T12:15:43;19.50;99.90
26623;DHT22;14254;50.968;5.366;2023-05-07T12:18:10;19.50;99.90
26623;DHT22;14254;50.968;5.366;2023-05-07T12:20:37;19.50;99.90
26623;DHT22;14254;50.968;5.366;2023-05-07T12:23:02;19.50;99.90
26623;DHT22;14254;50.968;5.366;2023-05-07T12:25:35;19.50;99.90
26623;DHT22;14254;50.968;5.366;2023-05-07T12:28:05;19.30;99.90
26623;DHT22;14254;50.968;5.366;2023-05-07T12:30:32;19.20;99.90
26623;DHT22;14254;50.968;5.366;2023-05-07T12:33:02;19.20;99.90
26623;DHT22;14254;50.968;5.366;2023-05-07T12:35:32;19.10;99.90
26623;DHT22;14254;50.968;5.366;2023-05-07T12:38:01;19.30;99.90
26623;DHT22;14254;50.968;5.366;2023-05-07T12:40:46;19.50;99.90
26623;DHT22;14254;50.968;5.366;2023-05-07T12:43:20;19.40;99.90
26623;DHT22;14254;50.968;5.366;2023-05-07T12:45:50;19.20;99.90
26623;DHT22;14254;50.968;5.366;2023-05-07T12:48:16;19.40;99.90
26623;DHT22;14254;50.968;5.366;2023-05-07T12:50:42;19.60;99.90
26623;DHT22;14254;50.968;5.366;2023-05-07T12:53:10;19.80;99.90
26623;DHT22;14254;50.968;5.366;2023-05-07T12:55:45;19.80;99.90
26623;DHT22;14254;50.968;5.366;2023-05-07T12:58:21;20.00;99.90
26623;DHT22;14254;50.968;5.366;2023-05-07T13:00:49;20.50;99.90
26623;DHT22;14254;50.968;5.366;2023-05-07T13:03:26;20.40;99.90
26623;DHT22;14254;50.968;5.366;2023-05-07T13:05:53;20.70;99.90
26623;DHT22;14254;50.968;5.366;2023-05-07T13:11:02;21.60;99.90
26623;DHT22;14254;50.968;5.366;2023-05-07T13:13:30;22.00;99.90
26623;DHT22;14254;50.968;5.366;2023-05-07T13:15:56;21.90;99.90
26623;DHT22;14254;50.968;5.366;2023-05-07T13:18:21;22.10;99.90
26623;DHT22;14254;50.968;5.366;2023-05-07T13:20:47;22.50;99.90
26623;DHT22;14254;50.968;5.366;2023-05-07T13:23:13;22.70;99.90
26623;DHT22;14254;50.968;5.366;2023-05-07T13:25:39;22.60;99.90
26623;DHT22;14254;50.968;5.366;2023-05-07T13:28:05;22.90;99.90
26623;DHT22;14254;50.968;5.366;2023-05-07T13:30:30;22.70;99.90
26623;DHT22;14254;50.968;5.366;2023-05-07T13:32:56;22.60;99.90
26623;DHT22;14254;50.968;5.366;2023-05-07T13:35:22;22.40;99.90
26623;DHT22;14254;50.968;5.366;2023-05-07T13:37:51;22.50;99.90
26623;DHT22;14254;50.968;5.366;2023-05-07T13:40:17;22.00;99.90
26623;DHT22;14254;50.968;5.366;2023-05-07T13:42:44;21.60;99.90
26623;DHT22;14254;50.968;5.366;2023-05-07T13:45:10;22.10;99.90
26623;DHT22;14254;50.968;5.366;2023-05-07T13:47:36;22.30;99.90
26623;DHT22;14254;50.968;5.366;2023-05-07T13:50:01;22.40;99.90
26623;DHT22;14254;50.968;5.366;2023-05-07T13:52:27;22.60;99.90
26623;DHT22;14254;50.968;5.366;2023-05-07T13:54:53;23.30;99.90
26623;DHT22;14254;50.968;5.366;2023-05-07T13:57:20;22.60;99.90
26623;DHT22;14254;50.968;5.366;2023-05-07T13:59:46;22.60;99.90
26623;DHT22;14254;50.968;5.366;2023-05-07T14:02:11;22.40;99.90
26623;DHT22;14254;50.968;5.366;2023-05-07T14:04:37;22.80;99.90
26623;DHT22;14254;50.968;5.366;2023-05-07T14:07:03;23.30;99.90
26623;DHT22;14254;50.968;5.366;2023-05-07T14:09:29;23.60;99.90
26623;DHT22;14254;50.968;5.366;2023-05-07T14:11:54;23.40;99.90
26623;DHT22;14254;50.968;5.366;2023-05-07T14:14:20;23.50;99.90
26623;DHT22;14254;50.968;5.366;2023-05-07T14:16:46;23.70;99.90
26623;DHT22;14254;50.968;5.366;2023-05-07T14:19:12;24.00;99.90
26623;DHT22;14254;50.968;5.366;2023-05-07T14:21:38;24.10;99.90
26623;DHT22;14254;50.968;5.366;2023-05-07T14:24:06;23.70;99.90
26623;DHT22;14254;50.968;5.366;2023-05-07T14:26:32;23.50;99.90
26623;DHT22;14254;50.968;5.366;2023-05-07T14:28:58;23.80;99.90
26623;DHT22;14254;50.968;5.366;2023-05-07T14:31:24;24.00;99.90
26623;DHT22;14254;50.968;5.366;2023-05-07T14:33:50;24.00;99.90
26623;DHT22;14254;50.968;5.366;2023-05-07T14:36:17;23.70;99.90
26623;DHT22;14254;50.968;5.366;2023-05-07T14:38:45;23.80;99.90
26623;DHT22;14254;50.968;5.366;2023-05-07T14:41:11;23.80;99.90
26623;DHT22;14254;50.968;5.366;2023-05-07T14:43:37;23.50;99.90
26623;DHT22;14254;50.968;5.366;2023-05-07T14:46:02;23.10;99.90
26623;DHT22;14254;50.968;5.366;2023-05-07T14:48:28;23.30;99.90
26623;DHT22;14254;50.968;5.366;2023-05-07T14:50:54;23.60;99.90
26623;DHT22;14254;50.968;5.366;2023-05-07T14:53:20;23.60;99.90
26623;DHT22;14254;50.968;5.366;2023-05-07T14:55:46;23.30;99.90
26623;DHT22;14254;50.968;5.366;2023-05-07T14:58:12;22.90;99.90
26623;DHT22;14254;50.968;5.366;2023-05-07T15:00:38;22.50;99.90
26623;DHT22;14254;50.968;5.366;2023-05-07T15:03:08;22.70;99.90
26623;DHT22;14254;50.968;5.366;2023-05-07T15:05:34;22.90;99.90
26623;DHT22;14254;50.968;5.366;2023-05-07T15:08:00;22.80;99.90
26623;DHT22;14254;50.968;5.366;2023-05-07T15:10:26;22.70;99.90
26623;DHT22;14254;50.968;5.366;2023-05-07T15:12:51;22.90;99.90
26623;DHT22;14254;50.968;5.366;2023-05-07T15:15:17;23.10;99.90
26623;DHT22;14254;50.968;5.366;2023-05-07T15:17:43;22.40;99.90
26623;DHT22;14254;50.968;5.366;2023-05-07T15:20:09;22.00;99.90
26623;DHT22;14254;50.968;5.366;2023-05-07T15:22:35;22.30;99.90
26623;DHT22;14254;50.968;5.366;2023-05-07T15:25:03;22.70;99.90
26623;DHT22;14254;50.968;5.366;2023-05-07T15:27:30;23.20;99.90
26623;DHT22;14254;50.968;5.366;2023-05-07T15:29:56;23.10;99.90
26623;DHT22;14254;50.968;5.366;2023-05-07T15:32:22;23.30;99.90
26623;DHT22;14254;50.968;5.366;2023-05-07T15:34:47;23.60;99.90
26623;DHT22;14254;50.968;5.366;2023-05-07T15:37:13;23.60;99.90
26623;DHT22;14254;50.968;5.366;2023-05-07T15:39:39;23.30;99.90
26623;DHT22;14254;50.968;5.366;2023-05-07T15:42:05;23.60;99.90
26623;DHT22;14254;50.968;5.366;2023-05-07T15:44:30;23.70;99.90
26623;DHT22;14254;50.968;5.366;2023-05-07T15:46:59;23.60;99.90
26623;DHT22;14254;50.968;5.366;2023-05-07T15:49:25;23.50;99.90
26623;DHT22;14254;50.968;5.366;2023-05-07T15:51:51;23.80;99.90